Time;durP1;ratioP1;P1;durP2;ratioP2;P2;SDS_P1;SDS_P2;PMS_P1;PMS_P2;Temp;Humidity;BMP_temperature;BMP_pressure;BME280_temperature;BME280_humidity;BME280_pressure;Samples;Min_cycle;Max_cycle;Signal;HPM_P1;HPM_P2
2022/04/02 00:01:39;;;;;;;1.50;1.40;;;1.50;1.00;;;;;;5054238;28;20438;-67
2022/04/02 00:04:07;;;;;;;0.87;0.87;;;1.50;1.00;;;;;;5054250;28;20462;-66
2022/04/02 00:06:35;;;;;;;0.50;0.20;;;1.50;1.00;;;;;;5054190;28;20846;-67
2022/04/02 00:09:03;;;;;;;0.50;0.30;;;1.50;1.00;;;;;;5054494;28;20449;-67
2022/04/02 00:11:31;;;;;;;0.50;0.23;;;1.50;1.00;;;;;;5053900;28;21169;-66
2022/04/02 00:14:01;;;;;;;0.60;0.27;;;1.60;1.00;;;;;;5054376;28;20482;-66
2022/04/02 00:16:28;;;;;;;0.60;0.60;;;1.60;1.00;;;;;;5054513;28;20438;-66
2022/04/02 00:18:57;;;;;;;0.50;0.20;;;1.50;1.00;;;;;;5053995;28;20478;-67
2022/04/02 00:21:25;;;;;;;0.50;0.10;;;1.50;1.00;;;;;;5054562;28;20529;-66
2022/04/02 00:23:52;;;;;;;0.73;0.67;;;1.50;1.00;;;;;;5054438;28;20446;-67
2022/04/02 00:26:21;;;;;;;4.83;1.70;;;1.50;1.00;;;;;;5054009;28;20908;-68
2022/04/02 00:28:50;;;;;;;0.50;0.20;;;1.50;1.00;;;;;;5054332;28;20462;-67
2022/04/02 00:31:21;;;;;;;0.90;0.90;;;1.50;1.00;;;;;;5054087;28;20442;-67
2022/04/02 00:33:50;;;;;;;0.50;0.20;;;1.60;1.00;;;;;;5053945;28;20482;-66
2022/04/02 00:36:21;;;;;;;4.33;4.07;;;1.50;1.00;;;;;;5054007;28;20817;-66
2022/04/02 00:38:49;;;;;;;2.57;1.00;;;1.50;1.00;;;;;;5053963;28;20462;-67
2022/04/02 00:41:18;;;;;;;2.10;0.90;;;1.50;1.00;;;;;;5053977;28;20881;-67
2022/04/02 00:43:57;;;;;;;0.50;0.20;;;1.50;1.00;;;;;;5053591;28;20466;-66
2022/04/02 00:46:27;;;;;;;1.57;1.43;;;1.50;1.00;;;;;;5053467;28;20461;-68
2022/04/02 00:48:55;;;;;;;0.50;0.20;;;1.50;1.00;;;;;;5053592;28;21147;-67
2022/04/02 00:51:23;;;;;;;1.40;0.90;;;1.50;1.00;;;;;;5053102;28;20443;-67
2022/04/02 00:53:52;;;;;;;2.43;2.13;;;1.50;1.00;;;;;;5053284;28;20481;-66
2022/04/02 00:56:22;;;;;;;0.60;0.20;;;1.40;1.00;;;;;;5052967;28;20442;-68
2022/04/02 00:58:49;;;;;;;1.37;1.07;;;1.40;1.00;;;;;;5052976;28;21000;-66
2022/04/02 01:01:18;;;;;;;3.27;1.30;;;1.40;1.00;;;;;;5053518;28;20442;-67
2022/04/02 01:03:48;;;;;;;1.23;0.70;;;1.40;1.00;;;;;;5054064;28;20451;-67
2022/04/02 01:06:17;;;;;;;0.60;0.30;;;1.30;1.00;;;;;;5052212;28;20823;-66
2022/04/02 01:08:46;;;;;;;1.90;1.80;;;1.30;1.00;;;;;;5052181;28;20463;-67
2022/04/02 01:11:14;;;;;;;6.23;1.33;;;1.30;1.00;;;;;;5053473;28;20525;-66
2022/04/02 01:13:42;;;;;;;5.03;1.60;;;1.30;1.00;;;;;;5072104;28;20488;-66
2022/04/02 01:16:10;;;;;;;0.50;0.20;;;1.20;1.00;;;;;;5073631;28;20441;-66
2022/04/02 01:18:38;;;;;;;0.60;0.47;;;1.20;1.00;;;;;;5073177;28;20486;-66
2022/04/02 01:21:07;;;;;;;0.87;0.60;;;1.20;1.00;;;;;;5072993;28;20899;-66
2022/04/02 01:23:36;;;;;;;0.60;0.33;;;1.20;1.00;;;;;;5073191;28;20808;-67
2022/04/02 01:26:04;;;;;;;2.70;1.00;;;1.30;1.00;;;;;;5073160;28;20439;-67
2022/04/02 01:28:34;;;;;;;0.50;0.10;;;2.40;1.00;;;;;;5072743;28;20971;-66
2022/04/02 01:31:06;;;;;;;2.70;2.00;;;1.20;1.00;;;;;;5067879;28;20446;-68
2022/04/02 01:33:35;;;;;;;3.43;0.80;;;1.20;1.00;;;;;;5052619;28;20543;-67
2022/04/02 01:36:05;;;;;;;0.77;0.50;;;1.20;1.00;;;;;;5051441;28;20449;-66
2022/04/02 01:38:33;;;;;;;0.50;0.20;;;1.20;1.00;;;;;;5050208;28;20553;-66
2022/04/02 01:41:02;;;;;;;1.90;1.80;;;1.20;1.00;;;;;;5049921;28;20471;-67
2022/04/02 01:43:30;;;;;;;0.80;0.80;;;1.20;1.00;;;;;;5052325;28;20492;-67
2022/04/02 01:45:59;;;;;;;0.50;0.30;;;1.20;1.00;;;;;;5052263;28;20442;-66
2022/04/02 01:48:27;;;;;;;0.60;0.40;;;1.20;1.00;;;;;;5051805;28;20528;-66
2022/04/02 01:50:55;;;;;;;0.77;0.70;;;1.20;1.00;;;;;;5052437;28;20446;-66
2022/04/02 01:53:25;;;;;;;0.70;0.63;;;1.20;1.00;;;;;;5051902;28;20480;-67
2022/04/02 01:55:53;;;;;;;1.43;0.93;;;1.20;1.00;;;;;;5052601;28;20816;-67
2022/04/02 01:58:22;;;;;;;1.17;0.63;;;1.20;1.00;;;;;;5052314;28;20469;-67
2022/04/02 02:00:50;;;;;;;1.73;0.50;;;1.10;1.00;;;;;;5052017;28;20442;-67
2022/04/02 02:03:18;;;;;;;5.30;1.80;;;1.10;1.00;;;;;;5072021;28;20442;-67
2022/04/02 02:05:47;;;;;;;1.13;0.57;;;1.10;1.00;;;;;;5072267;28;20959;-67
2022/04/02 02:08:15;;;;;;;1.23;1.13;;;1.10;1.00;;;;;;5071567;28;20473;-67
2022/04/02 02:10:42;;;;;;;0.60;0.30;;;1.10;1.00;;;;;;5068333;28;20457;-69
2022/04/02 02:13:10;;;;;;;1.33;1.07;;;1.10;1.00;;;;;;5051914;28;20446;-67
2022/04/02 02:15:40;;;;;;;0.80;0.67;;;1.10;1.00;;;;;;5051825;28;20983;-67
2022/04/02 02:18:08;;;;;;;1.90;1.20;;;1.20;1.00;;;;;;5051417;28;20485;-66
2022/04/02 02:20:36;;;;;;;1.60;1.40;;;1.10;1.00;;;;;;5051709;28;20442;-68
2022/04/02 02:23:04;;;;;;;2.43;1.20;;;1.10;1.00;;;;;;5052259;28;20442;-66
2022/04/02 02:25:32;;;;;;;0.60;0.30;;;1.10;1.00;;;;;;5060250;28;20445;-66
2022/04/02 02:28:00;;;;;;;2.67;2.40;;;1.00;1.00;;;;;;5072097;28;20466;-67
2022/04/02 02:30:28;;;;;;;1.43;1.20;;;1.00;1.00;;;;;;5072096;28;20450;-67
2022/04/02 02:35:52;;;;;;;0.60;0.43;;;1.10;1.00;;;;;;5072542;28;20570;-67
2022/04/02 02:38:21;;;;;;;2.63;1.70;;;1.00;1.00;;;;;;5072746;28;20460;-66
2022/04/02 02:40:50;;;;;;;1.87;0.93;;;1.00;1.00;;;;;;5071973;28;20434;-68
2022/04/02 02:43:19;;;;;;;0.53;0.30;;;1.00;1.00;;;;;;5071958;28;21038;-68
2022/04/02 02:45:47;;;;;;;6.97;2.97;;;1.00;1.00;;;;;;5071905;28;20437;-67
2022/04/02 02:48:16;;;;;;;1.87;0.80;;;1.00;1.00;;;;;;5071116;28;20467;-67
2022/04/02 02:50:44;;;;;;;1.23;0.80;;;1.00;1.00;;;;;;5071501;28;20592;-68
2022/04/02 02:53:13;;;;;;;2.43;2.07;;;1.00;1.00;;;;;;5071764;28;20983;-67
2022/04/02 02:55:41;;;;;;;0.60;0.50;;;1.00;1.00;;;;;;5062520;28;20957;-67
2022/04/02 02:58:09;;;;;;;0.70;0.50;;;1.00;1.00;;;;;;5051022;28;20493;-69
2022/04/02 03:00:37;;;;;;;0.60;0.40;;;1.00;1.00;;;;;;5051249;28;20438;-67
2022/04/02 03:03:05;;;;;;;4.00;1.27;;;1.00;1.00;;;;;;5051507;28;20530;-67
2022/04/02 03:05:34;;;;;;;1.23;1.13;;;1.00;1.00;;;;;;5051321;28;20816;-66
2022/04/02 03:08:03;;;;;;;0.70;0.40;;;1.00;1.00;;;;;;5050998;28;20462;-66
2022/04/02 03:10:31;;;;;;;1.50;1.37;;;0.90;1.00;;;;;;5049776;28;20953;-67
2022/04/02 03:13:00;;;;;;;4.30;1.10;;;1.00;1.00;;;;;;5050355;28;20862;-67
2022/04/02 03:15:28;;;;;;;1.63;1.30;;;1.00;1.00;;;;;;5055077;28;20489;-66
2022/04/02 03:18:03;;;;;;;0.83;0.80;;;1.00;1.00;;;;;;5056062;28;20822;-67
2022/04/02 03:20:31;;;;;;;2.00;1.27;;;2.30;1.00;;;;;;5056261;28;20452;-67
2022/04/02 03:23:00;;;;;;;1.30;1.17;;;0.90;1.00;;;;;;5056626;28;20442;-67
2022/04/02 03:25:28;;;;;;;1.97;1.70;;;0.90;1.00;;;;;;5062893;28;20441;-67
2022/04/02 03:27:56;;;;;;;0.50;0.10;;;0.90;1.00;;;;;;5076106;28;20465;-67
2022/04/02 03:30:26;;;;;;;1.33;0.83;;;0.90;1.00;;;;;;5076628;28;20449;-67
2022/04/02 03:32:55;;;;;;;1.20;1.10;;;0.90;1.00;;;;;;5076552;28;20437;-66
2022/04/02 03:35:24;;;;;;;1.50;0.83;;;0.90;1.00;;;;;;5076676;28;21109;-67
2022/04/02 03:37:53;;;;;;;3.50;2.23;;;1.00;1.00;;;;;;5076658;28;20465;-67
2022/04/02 03:40:26;;;;;;;3.00;1.10;;;0.90;1.00;;;;;;5076611;28;20453;-66
2022/04/02 03:42:54;;;;;;;0.60;0.30;;;0.90;1.00;;;;;;5076810;28;20931;-67
2022/04/02 03:45:23;;;;;;;1.70;1.03;;;0.90;1.00;;;;;;5077662;28;20448;-67
2022/04/02 03:47:51;;;;;;;1.20;0.50;;;0.90;1.00;;;;;;5076973;28;20466;-67
2022/04/02 03:50:20;;;;;;;1.00;0.90;;;0.90;1.00;;;;;;5077244;28;20448;-67
2022/04/02 03:52:48;;;;;;;4.40;3.47;;;0.90;1.00;;;;;;5077101;28;20438;-68
2022/04/02 03:55:16;;;;;;;2.00;0.93;;;0.90;1.00;;;;;;5077235;28;20483;-67
2022/04/02 03:57:47;;;;;;;0.83;0.83;;;;;;;;;;5076264;28;20468;-66
2022/04/02 04:00:16;;;;;;;0.50;0.10;;;0.90;1.00;;;;;;5076817;28;20989;-67
2022/04/02 04:02:44;;;;;;;1.17;0.87;;;0.90;1.00;;;;;;5076843;28;20437;-67
2022/04/02 04:05:12;;;;;;;0.50;0.30;;;0.90;1.00;;;;;;5076967;28;20468;-67
2022/04/02 04:07:41;;;;;;;1.00;0.83;;;0.90;1.00;;;;;;5076335;28;20461;-67
2022/04/02 04:10:09;;;;;;;1.53;0.87;;;0.90;1.00;;;;;;5076737;28;20464;-67
2022/04/02 04:12:37;;;;;;;0.87;0.77;;;0.90;1.00;;;;;;5056151;28;20446;-66
2022/04/02 04:15:07;;;;;;;0.63;0.50;;;0.90;1.00;;;;;;5055940;28;20848;-67
2022/04/02 04:17:35;;;;;;;1.97;1.80;;;0.90;1.00;;;;;;5056250;28;20470;-68
2022/04/02 04:20:04;;;;;;;0.63;0.53;;;0.90;1.00;;;;;;5074263;28;20536;-67
2022/04/02 04:22:32;;;;;;;1.43;1.33;;;0.90;1.00;;;;;;5074302;28;20446;-67
2022/04/02 04:24:59;;;;;;;7.30;1.63;;;0.90;1.00;;;;;;5073215;28;20445;-67
2022/04/02 04:27:27;;;;;;;1.43;1.33;;;0.90;1.00;;;;;;5074097;28;20880;-67
2022/04/02 04:29:56;;;;;;;0.50;0.10;;;0.90;1.00;;;;;;5074306;28;20823;-67
2022/04/02 04:32:25;;;;;;;1.10;0.80;;;0.90;1.00;;;;;;5074189;28;20527;-68
2022/04/02 04:34:53;;;;;;;1.13;0.93;;;0.90;1.00;;;;;;5073557;28;20480;-66
2022/04/02 04:37:21;;;;;;;0.50;0.30;;;0.90;1.00;;;;;;5073631;28;20480;-67
2022/04/02 04:39:49;;;;;;;1.80;0.93;;;0.90;1.00;;;;;;5073915;28;20936;-67
2022/04/02 04:42:17;;;;;;;0.80;0.70;;;0.90;1.00;;;;;;5074764;28;20441;-69
2022/04/02 04:44:44;;;;;;;0.50;0.20;;;0.80;1.00;;;;;;5074922;28;20438;-66
2022/04/02 04:47:12;;;;;;;0.50;0.20;;;0.90;1.00;;;;;;5074233;28;20477;-67
2022/04/02 04:49:42;;;;;;;2.83;1.13;;;;;;;;;;5074074;28;20441;-66
2022/04/02 04:52:10;;;;;;;0.77;0.63;;;0.90;1.00;;;;;;5074635;28;20463;-66
2022/04/02 04:54:37;;;;;;;1.73;1.03;;;0.90;1.00;;;;;;5074710;28;20499;-68
2022/04/02 04:57:05;;;;;;;1.80;1.37;;;0.90;1.00;;;;;;5074014;28;20835;-67
2022/04/02 04:59:33;;;;;;;0.50;0.10;;;0.90;1.00;;;;;;5074703;28;20446;-66
2022/04/02 05:02:01;;;;;;;0.50;0.20;;;0.90;1.00;;;;;;5074579;28;20442;-67
2022/04/02 05:04:30;;;;;;;0.93;0.93;;;0.90;1.00;;;;;;5074255;28;20770;-67
2022/04/02 05:07:00;;;;;;;1.10;0.83;;;0.80;1.00;;;;;;5074443;28;20463;-67
2022/04/02 05:09:27;;;;;;;6.77;2.20;;;0.80;1.00;;;;;;5075097;28;20460;-67
2022/04/02 05:11:57;;;;;;;0.60;0.60;;;0.80;1.00;;;;;;5059234;28;20470;-67
2022/04/02 05:14:25;;;;;;;3.13;1.87;;;0.80;1.00;;;;;;5054678;28;20443;-66
2022/04/02 05:16:53;;;;;;;5.27;2.67;;;0.80;1.00;;;;;;5054513;28;20793;-67
2022/04/02 05:19:20;;;;;;;2.47;2.23;;;0.80;1.00;;;;;;5054957;28;20449;-67
2022/04/02 05:21:48;;;;;;;1.00;0.70;;;0.80;1.00;;;;;;5050387;28;20466;-67
2022/04/02 05:24:18;;;;;;;1.63;0.73;;;0.80;1.00;;;;;;5055336;28;20783;-68
2022/04/02 05:26:47;;;;;;;0.80;0.50;;;0.80;1.00;;;;;;5053422;28;20488;-67
2022/04/02 05:29:15;;;;;;;0.60;0.30;;;0.80;1.00;;;;;;5047825;28;20555;-67
2022/04/02 05:31:43;;;;;;;1.30;1.17;;;0.80;1.00;;;;;;5052517;28;20461;-67
2022/04/02 05:34:11;;;;;;;6.03;1.10;;;0.80;1.00;;;;;;5052618;28;20474;-67
2022/04/02 05:36:41;;;;;;;0.50;0.10;;;0.80;1.00;;;;;;5051819;28;20477;-67
2022/04/02 05:39:09;;;;;;;0.60;0.40;;;0.80;1.00;;;;;;5053142;28;20462;-67
2022/04/02 05:41:38;;;;;;;2.07;1.87;;;0.80;1.00;;;;;;5053614;28;20450;-66
2022/04/02 05:44:07;;;;;;;1.07;0.97;;;0.80;1.00;;;;;;5054260;28;20449;-67
2022/04/02 05:46:35;;;;;;;1.70;1.27;;;0.80;1.00;;;;;;5054254;28;20465;-67
2022/04/02 05:49:03;;;;;;;0.60;0.30;;;0.80;1.00;;;;;;5053677;28;21042;-68
2022/04/02 05:51:31;;;;;;;1.43;0.90;;;0.80;1.00;;;;;;5048508;28;20442;-67
2022/04/02 05:54:00;;;;;;;1.50;1.40;;;0.80;1.00;;;;;;5053699;28;20438;-67
2022/04/02 05:56:28;;;;;;;2.50;1.07;;;0.80;1.00;;;;;;5038016;28;20495;-68
2022/04/02 05:58:58;;;;;;;0.80;0.43;;;0.80;1.00;;;;;;5050101;28;20466;-67
2022/04/02 06:01:26;;;;;;;1.17;0.70;;;0.80;1.00;;;;;;5046082;28;20459;-68
2022/04/02 06:03:55;;;;;;;2.00;1.80;;;0.80;1.00;;;;;;5048926;28;20845;-67
2022/04/02 06:06:23;;;;;;;2.20;1.90;;;0.80;1.00;;;;;;5051824;28;20454;-68
2022/04/02 06:08:51;;;;;;;0.87;0.67;;;0.90;1.00;;;;;;5069497;28;20855;-67
2022/04/02 06:11:24;;;;;;;0.60;0.50;;;0.90;1.00;;;;;;5052846;28;20875;-67
2022/04/02 06:13:52;;;;;;;2.40;0.40;;;0.90;1.00;;;;;;5049989;28;20890;-67
2022/04/02 06:16:22;;;;;;;0.60;0.27;;;0.90;1.00;;;;;;5051667;28;20502;-68
2022/04/02 06:18:50;;;;;;;0.60;0.30;;;0.90;1.00;;;;;;5053579;28;20543;-67
2022/04/02 06:21:18;;;;;;;1.27;0.83;;;1.00;1.00;;;;;;5053847;28;20448;-68
2022/04/02 06:23:46;;;;;;;0.50;0.20;;;0.90;1.00;;;;;;5051755;28;20438;-67
2022/04/02 06:26:14;;;;;;;7.20;2.00;;;1.00;1.00;;;;;;5063647;28;20512;-68
2022/04/02 06:28:43;;;;;;;1.53;1.43;;;1.00;1.00;;;;;;5055516;28;20481;-68
2022/04/02 06:31:12;;;;;;;1.60;1.50;;;1.00;1.00;;;;;;5054185;28;20503;-67
2022/04/02 06:33:41;;;;;;;1.17;0.93;;;1.00;1.00;;;;;;5051727;28;20832;-66
2022/04/02 06:36:09;;;;;;;0.80;0.80;;;1.10;1.00;;;;;;5050411;28;20485;-68
2022/04/02 06:38:37;;;;;;;0.50;0.30;;;1.10;1.00;;;;;;5051844;28;20506;-68
2022/04/02 06:41:05;;;;;;;1.03;0.93;;;1.10;1.00;;;;;;5051928;28;20455;-67
2022/04/02 06:43:33;;;;;;;1.53;1.43;;;1.10;1.00;;;;;;5050089;28;20446;-68
2022/04/02 06:46:01;;;;;;;36.93;2.33;;;1.00;1.00;;;;;;5049903;28;20449;-66
2022/04/02 06:48:29;;;;;;;0.97;0.80;;;1.00;1.00;;;;;;5050115;28;20557;-68
2022/04/02 06:50:58;;;;;;;0.90;0.40;;;1.00;1.00;;;;;;5051831;28;20458;-67
2022/04/02 06:53:26;;;;;;;0.77;0.53;;;1.10;1.00;;;;;;5050192;28;20463;-68
2022/04/02 06:55:54;;;;;;;1.30;0.60;;;1.20;1.00;;;;;;5051310;28;20473;-68
2022/04/02 06:58:28;;;;;;;0.50;0.10;;;1.20;1.00;;;;;;5045857;28;20507;-68
2022/04/02 07:00:56;;;;;;;0.50;0.20;;;1.30;1.00;;;;;;5050919;28;20453;-67
2022/04/02 07:03:24;;;;;;;1.23;0.83;;;1.30;1.00;;;;;;5052193;28;20502;-68
2022/04/02 07:05:52;;;;;;;0.63;0.37;;;1.40;1.00;;;;;;5052705;28;20438;-67
2022/04/02 07:08:21;;;;;;;1.00;0.57;;;1.30;1.00;;;;;;5051215;28;20462;-67
2022/04/02 07:10:49;;;;;;;0.67;0.40;;;1.30;1.00;;;;;;5048655;28;20450;-68
2022/04/02 07:13:17;;;;;;;0.83;0.70;;;1.40;1.00;;;;;;5051291;28;20593;-67
2022/04/02 07:15:46;;;;;;;1.63;1.53;;;1.40;1.00;;;;;;5051428;28;20458;-67
2022/04/02 07:18:14;;;;;;;0.57;0.37;;;1.50;1.00;;;;;;5050929;28;20484;-68
2022/04/02 07:20:41;;;;;;;2.97;2.77;;;1.50;1.00;;;;;;5051261;28;20446;-66
2022/04/02 07:23:10;;;;;;;0.90;0.43;;;1.60;1.00;;;;;;5051717;28;20824;-67
2022/04/02 07:25:41;;;;;;;0.50;0.10;;;1.70;1.00;;;;;;5051341;28;20485;-68
2022/04/02 07:28:09;;;;;;;1.43;1.33;;;1.70;1.00;;;;;;5050642;28;20473;-68
2022/04/02 07:30:38;;;;;;;0.70;0.40;;;1.70;1.00;;;;;;5064457;28;20438;-69
2022/04/02 07:33:07;;;;;;;1.57;0.80;;;1.70;1.00;;;;;;5053572;28;20533;-68
2022/04/02 07:35:38;;;;;;;0.63;0.50;;;1.80;1.00;;;;;;5049663;28;20445;-69
2022/04/02 07:38:12;;;;;;;1.47;1.37;;;1.70;1.00;;;;;;5046332;28;21093;-68
2022/04/02 07:40:51;;;;;;;0.50;0.20;;;1.70;1.00;;;;;;5049656;28;20947;-68
2022/04/02 07:43:26;;;;;;;0.57;0.50;;;1.70;1.00;;;;;;5050429;28;20442;-66
2022/04/02 07:46:04;;;;;;;1.07;0.43;;;1.80;1.00;;;;;;5046438;28;20458;-67
2022/04/02 07:48:33;;;;;;;0.50;0.10;;;1.90;1.00;;;;;;5031911;28;20462;-67
2022/04/02 07:51:09;;;;;;;0.57;0.30;;;1.90;1.00;;;;;;5051342;28;20438;-68
2022/04/02 07:53:44;;;;;;;0.80;0.30;;;1.90;1.00;;;;;;5049748;28;20442;-68
2022/04/02 07:56:19;;;;;;;1.20;0.70;;;1.90;1.00;;;;;;5051006;28;20810;-68
2022/04/02 07:58:52;;;;;;;1.23;1.03;;;1.90;1.00;;;;;;5048607;28;20493;-67
2022/04/02 08:01:20;;;;;;;1.00;0.60;;;1.90;1.00;;;;;;5053879;28;20500;-67
2022/04/02 08:03:49;;;;;;;0.50;0.30;;;1.90;1.00;;;;;;5053277;28;20434;-67
2022/04/02 08:06:17;;;;;;;2.10;2.00;;;2.00;1.00;;;;;;5053380;28;20432;-68
2022/04/02 08:08:46;;;;;;;4.80;2.87;;;2.00;1.00;;;;;;5054476;28;20458;-68
2022/04/02 08:11:18;;;;;;;0.70;0.50;;;2.00;1.00;;;;;;5053870;28;20954;-67
2022/04/02 08:13:46;;;;;;;0.50;0.10;;;;;;;;;;5051187;28;20489;-69
2022/04/02 08:16:15;;;;;;;4.60;1.00;;;;;;;;;;5054031;28;20438;-67
2022/04/02 08:18:46;;;;;;;0.50;0.17;;;2.30;1.00;;;;;;5072781;28;20845;-67
2022/04/02 08:21:20;;;;;;;0.60;0.60;;;2.40;1.00;;;;;;5074182;28;20520;-67
2022/04/02 08:23:48;;;;;;;1.47;1.37;;;2.40;1.00;;;;;;5074298;28;20445;-67
2022/04/02 08:26:25;;;;;;;0.50;0.20;;;2.40;1.00;;;;;;5074182;28;20442;-67
2022/04/02 08:29:15;;;;;;;1.87;0.73;;;2.40;1.00;;;;;;5074387;28;20467;-67
2022/04/02 08:31:57;;;;;;;0.60;0.60;;;2.40;1.00;;;;;;5054342;28;20445;-67
2022/04/02 08:34:37;;;;;;;2.17;0.90;;;2.40;1.00;;;;;;5053817;28;20860;-67
2022/04/02 08:37:13;;;;;;;1.17;0.80;;;2.60;1.00;;;;;;5053803;28;20482;-68
2022/04/02 08:39:53;;;;;;;0.80;0.47;;;2.50;1.00;;;;;;5055001;28;20473;-68
2022/04/02 08:42:47;;;;;;;0.50;0.20;;;2.70;1.00;;;;;;5053227;28;20443;-68
2022/04/02 08:45:15;;;;;;;1.80;0.93;;;2.70;1.00;;;;;;5049354;28;20454;-67
2022/04/02 08:48:21;;;;;;;0.50;0.10;;;2.80;1.00;;;;;;5050334;28;20467;-67
2022/04/02 08:50:54;;;;;;;0.50;0.10;;;2.90;1.00;;;;;;5042155;28;20482;-68
2022/04/02 08:53:33;;;;;;;0.73;0.47;;;2.80;1.00;;;;;;5052172;28;20443;-67
2022/04/02 08:56:03;;;;;;;0.50;0.10;;;2.90;1.00;;;;;;5053201;28;20447;-66
2022/04/02 08:58:56;;;;;;;1.60;1.17;;;3.10;1.00;;;;;;5049967;28;20996;-67
2022/04/02 09:01:27;;;;;;;0.80;0.40;;;3.10;1.00;;;;;;5052980;28;20443;-67
2022/04/02 09:04:25;;;;;;;0.77;0.77;;;3.10;1.00;;;;;;5049182;28;20808;-67
2022/04/02 09:07:39;;;;;;;0.80;0.60;;;3.00;1.00;;;;;;5048945;28;21246;-68
2022/04/02 09:10:46;;;;;;;0.60;0.30;;;2.90;1.00;;;;;;5052795;28;20442;-69
2022/04/02 09:13:43;;;;;;;0.50;0.20;;;2.90;1.00;;;;;;5051732;28;20522;-68
2022/04/02 09:16:21;;;;;;;0.60;0.30;;;2.90;1.00;;;;;;5053419;28;20451;-67
2022/04/02 09:19:12;;;;;;;0.50;0.20;;;3.00;1.00;;;;;;5051455;28;20518;-66
2022/04/02 09:22:02;;;;;;;0.50;0.10;;;3.10;1.00;;;;;;5049655;28;20960;-67
2022/04/02 09:25:08;;;;;;;1.80;0.40;;;3.00;1.00;;;;;;5050598;28;20439;-67
2022/04/02 09:27:53;;;;;;;0.50;0.30;;;3.20;1.00;;;;;;5032054;28;20979;-68
2022/04/02 09:30:34;;;;;;;0.50;0.10;;;3.30;1.00;;;;;;5034031;28;20532;-66
2022/04/02 09:33:33;;;;;;;1.00;0.50;;;3.40;1.00;;;;;;5052551;28;20443;-68
2022/04/02 09:36:16;;;;;;;0.50;0.10;;;3.40;1.00;;;;;;5052735;28;20790;-68
2022/04/02 09:38:59;;;;;;;1.53;1.43;;;;;;;;;;5052337;28;20490;-67
2022/04/02 09:41:50;;;;;;;2.03;1.43;;;3.30;1.00;;;;;;5052767;28;20442;-68
2022/04/02 09:44:49;;;;;;;0.73;0.67;;;3.20;1.00;;;;;;5052288;28;20442;-67
2022/04/02 09:47:21;;;;;;;0.70;0.60;;;3.20;1.00;;;;;;5052106;28;20456;-68
2022/04/02 09:50:07;;;;;;;0.50;0.20;;;3.20;1.00;;;;;;5053026;28;20560;-67
2022/04/02 09:52:38;;;;;;;1.53;0.83;;;3.20;1.00;;;;;;5047296;28;20460;-67
2022/04/02 09:55:09;;;;;;;1.63;1.30;;;3.20;1.00;;;;;;5051534;28;20492;-68
2022/04/02 09:58:25;;;;;;;1.70;1.37;;;3.30;1.00;;;;;;5051541;28;20488;-68
2022/04/02 10:01:02;;;;;;;1.70;1.10;;;3.40;1.00;;;;;;4985393;28;20451;-67
2022/04/02 10:03:34;;;;;;;2.33;1.43;;;3.40;1.00;;;;;;5031966;28;20448;-67
2022/04/02 10:06:26;;;;;;;2.30;2.00;;;3.50;1.00;;;;;;5031610;28;20461;-67
2022/04/02 10:09:05;;;;;;;3.57;1.10;;;3.40;1.00;;;;;;5050633;28;20574;-66
2022/04/02 10:11:35;;;;;;;1.73;0.97;;;3.40;1.00;;;;;;5043622;28;20431;-66
2022/04/02 10:14:06;;;;;;;0.90;0.67;;;3.60;1.00;;;;;;5046493;28;20472;-66
2022/04/02 10:16:35;;;;;;;0.67;0.43;;;3.60;1.00;;;;;;5051255;28;20439;-66
2022/04/02 10:19:11;;;;;;;1.83;1.70;;;3.70;1.00;;;;;;5045850;28;20583;-67
2022/04/02 10:21:40;;;;;;;0.60;0.30;;;3.80;1.00;;;;;;5051328;28;20464;-67
2022/04/02 10:24:22;;;;;;;0.60;0.20;;;3.90;1.00;;;;;;5048222;28;20941;-68
2022/04/02 10:26:53;;;;;;;2.30;2.10;;;4.00;1.00;;;;;;5051621;28;20922;-67
2022/04/02 10:29:41;;;;;;;1.17;0.77;;;4.00;1.00;;;;;;5048858;28;20453;-67
2022/04/02 10:32:37;;;;;;;3.57;1.60;;;4.10;1.00;;;;;;5048981;28;20443;-68
2022/04/02 10:35:07;;;;;;;0.90;0.60;;;4.10;1.00;;;;;;5049039;28;20448;-66
2022/04/02 10:37:45;;;;;;;0.50;0.10;;;4.20;1.00;;;;;;5046170;28;20497;-67
2022/04/02 10:40:18;;;;;;;0.50;0.20;;;4.20;1.00;;;;;;5049360;28;20866;-67
2022/04/02 10:42:51;;;;;;;1.37;1.17;;;;;;;;;;5049608;28;20452;-67
2022/04/02 10:45:21;;;;;;;0.50;0.20;;;4.40;1.00;;;;;;5049645;28;20442;-68
2022/04/02 10:47:50;;;;;;;1.37;0.77;;;4.50;1.00;;;;;;5048933;28;20492;-68
2022/04/02 10:50:22;;;;;;;0.60;0.40;;;4.50;1.00;;;;;;5051120;28;20446;-67
2022/04/02 10:52:52;;;;;;;0.70;0.50;;;4.40;1.00;;;;;;5049272;28;20514;-69
2022/04/02 10:55:23;;;;;;;1.07;1.07;;;4.40;1.00;;;;;;5050405;28;20468;-68
2022/04/02 10:57:51;;;;;;;0.50;0.10;;;4.40;1.00;;;;;;5045357;28;20489;-68
2022/04/02 11:00:19;;;;;;;2.87;1.70;;;4.40;1.00;;;;;;5049962;28;20467;-67
2022/04/02 11:02:49;;;;;;;0.83;0.80;;;4.20;1.00;;;;;;5046937;28;20448;-68
2022/04/02 11:05:19;;;;;;;11.23;2.50;;;4.10;1.00;;;;;;5051386;28;20576;-68
2022/04/02 11:07:49;;;;;;;1.07;0.47;;;2.80;1.00;;;;;;5044681;28;20504;-68
2022/04/02 11:10:20;;;;;;;1.37;1.17;;;4.10;1.00;;;;;;5049813;28;20443;-68
2022/04/02 11:12:58;;;;;;;1.00;0.60;;;4.20;1.00;;;;;;5048791;28;20464;-67
2022/04/02 11:15:27;;;;;;;11.20;2.63;;;4.30;1.00;;;;;;5051107;28;20536;-67
2022/04/02 11:17:57;;;;;;;0.60;0.60;;;4.20;1.00;;;;;;5049822;28;20512;-67
2022/04/02 11:20:27;;;;;;;1.47;0.93;;;4.30;1.00;;;;;;5049825;28;20439;-67
2022/04/02 11:23:19;;;;;;;0.50;0.20;;;4.30;1.00;;;;;;5051668;28;20460;-67
2022/04/02 11:25:50;;;;;;;2.40;1.27;;;4.40;1.00;;;;;;5045619;28;20449;-66
2022/04/02 11:28:20;;;;;;;1.87;1.73;;;4.40;1.00;;;;;;5049294;28;20470;-66
2022/04/02 11:30:50;;;;;;;0.77;0.73;;;6.20;1.00;;;;;;5050913;28;20458;-66
2022/04/02 11:33:19;;;;;;;0.80;0.73;;;4.40;1.00;;;;;;5050803;28;20439;-68
2022/04/02 11:35:49;;;;;;;0.60;0.30;;;4.30;1.00;;;;;;5053518;28;20439;-67
2022/04/02 11:38:36;;;;;;;0.50;0.20;;;4.30;1.00;;;;;;5054667;28;20565;-68
2022/04/02 11:41:14;;;;;;;0.90;0.77;;;4.30;1.00;;;;;;5055054;28;20448;-67
2022/04/02 11:43:43;;;;;;;3.80;1.07;;;4.30;1.00;;;;;;5055049;28;20446;-67
2022/04/02 11:46:12;;;;;;;0.60;0.10;;;4.30;1.00;;;;;;5053991;28;20533;-68
2022/04/02 11:48:51;;;;;;;3.03;1.60;;;4.50;1.00;;;;;;5054933;28;20459;-68
2022/04/02 11:51:21;;;;;;;0.73;0.60;;;4.40;1.00;;;;;;5054851;28;20450;-68
2022/04/02 11:53:49;;;;;;;0.50;0.40;;;4.40;1.00;;;;;;5054591;28;20446;-67
2022/04/02 11:56:29;;;;;;;0.50;0.20;;;4.40;1.00;;;;;;5054249;28;20949;-68
2022/04/02 11:58:58;;;;;;;0.50;0.10;;;4.30;1.00;;;;;;5054498;28;20569;-69
2022/04/02 12:01:27;;;;;;;7.07;2.13;;;4.50;1.00;;;;;;5054451;28;20461;-67
2022/04/02 12:04:12;;;;;;;0.50;0.20;;;4.50;1.00;;;;;;5054711;28;20446;-67
2022/04/02 12:06:40;;;;;;;0.60;0.30;;;;;;;;;;5054243;28;20471;-67
2022/04/02 12:09:12;;;;;;;2.30;2.20;;;4.40;1.00;;;;;;5049928;28;20979;-67
2022/04/02 12:11:48;;;;;;;0.50;0.20;;;4.50;1.00;;;;;;5049990;28;20542;-67
2022/04/02 12:14:28;;;;;;;0.50;0.20;;;4.40;1.00;;;;;;5043104;28;20458;-69
2022/04/02 12:17:00;;;;;;;0.70;0.20;;;4.50;1.00;;;;;;5044081;28;20813;-68
2022/04/02 12:19:42;;;;;;;1.73;1.10;;;4.50;1.00;;;;;;5051875;28;20562;-68
2022/04/02 12:22:21;;;;;;;1.17;0.80;;;4.60;1.00;;;;;;5054271;28;20549;-67
2022/04/02 12:24:52;;;;;;;0.53;0.20;;;4.60;1.00;;;;;;5054732;28;20445;-68
2022/04/02 12:27:22;;;;;;;1.10;0.70;;;4.60;1.00;;;;;;5074221;28;20926;-68
2022/04/02 12:29:52;;;;;;;0.50;0.10;;;4.70;1.00;;;;;;5067938;28;20563;-68
2022/04/02 12:32:32;;;;;;;0.70;0.43;;;4.70;1.00;;;;;;5052630;28;20458;-69
2022/04/02 12:35:06;;;;;;;0.90;0.60;;;4.70;1.00;;;;;;5054396;28;20518;-67
2022/04/02 12:37:42;;;;;;;0.70;0.60;;;4.70;1.00;;;;;;5053859;28;20470;-67
2022/04/02 12:40:19;;;;;;;0.70;0.63;;;4.70;1.00;;;;;;5052679;28;20578;-67
2022/04/02 12:42:50;;;;;;;0.50;0.20;;;4.70;1.00;;;;;;5051227;28;20448;-68
2022/04/02 12:45:20;;;;;;;5.23;2.00;;;4.70;99.90;;;;;;5049744;28;20461;-67
2022/04/02 12:48:00;;;;;;;0.93;0.77;;;4.70;1.00;;;;;;5053843;28;20469;-67
2022/04/02 12:50:30;;;;;;;0.60;0.30;;;4.70;1.00;;;;;;5045318;28;20951;-67
2022/04/02 12:52:57;;;;;;;1.23;1.13;;;4.70;1.00;;;;;;5050323;28;20450;-68
2022/04/02 12:55:27;;;;;;;0.60;0.20;;;4.70;99.90;;;;;;5049660;28;20495;-68
2022/04/02 12:58:07;;;;;;;0.50;0.10;;;4.70;99.90;;;;;;5062414;28;20478;-69
2022/04/02 13:00:37;;;;;;;0.83;0.73;;;5.60;99.90;;;;;;5069770;28;20813;-68
2022/04/02 13:03:10;;;;;;;2.20;1.33;;;4.70;99.90;;;;;;5071305;28;20465;-68
2022/04/02 13:05:48;;;;;;;0.60;0.50;;;4.70;99.90;;;;;;5070959;28;20857;-68
2022/04/02 13:08:25;;;;;;;0.50;0.20;;;4.70;99.90;;;;;;5071834;28;20468;-68
2022/04/02 13:10:56;;;;;;;1.80;1.20;;;4.80;99.90;;;;;;5073239;28;20472;-68
2022/04/02 13:13:38;;;;;;;1.53;0.50;;;4.80;99.90;;;;;;5072931;28;20902;-67
2022/04/02 13:16:07;;;;;;;3.43;0.93;;;4.70;99.90;;;;;;5073291;28;20454;-67
2022/04/02 13:21:24;;;;;;;1.17;1.07;;;4.60;99.90;;;;;;5073065;28;20525;-68
2022/04/02 13:24:26;;;;;;;0.70;0.60;;;4.60;99.90;;;;;;5072819;28;20457;-67
2022/04/02 13:27:26;;;;;;;0.83;0.50;;;4.60;99.90;;;;;;5072316;28;20955;-68
2022/04/02 13:30:06;;;;;;;0.50;0.10;;;4.50;99.90;;;;;;5072730;28;20501;-68
2022/04/02 13:33:11;;;;;;;0.70;0.40;;;4.60;99.90;;;;;;5072833;28;20442;-67
2022/04/02 13:35:43;;;;;;;0.60;0.30;;;4.60;99.90;;;;;;5072733;28;20452;-68
2022/04/02 13:38:31;;;;;;;0.60;0.30;;;4.70;99.90;;;;;;5050630;28;20535;-68
2022/04/02 13:41:01;;;;;;;0.70;0.60;;;4.80;99.90;;;;;;5052552;28;20475;-68